Terminal Aerodrome Forecast
Issued by NWS Twin Cities, MN

Home | Current Version | Previous Version | Text Only | Print | Product List | Glossary Off
Versions: 1 2 3 4 5 6 7 8 9 10 11 12 13 14 15 16 17 18 19 20 21 22 23 24 25 26 27 28 29 30 31

000
FTUS43 KMPX 311400 AAA
TAFMSP
TAF AMD
KMSP 311449Z 3115/0118 13014G22KT P6SM SCT012 BKN110
     FM311600 16015G22KT P6SM SCT050
     FM312000 17014G22KT P6SM VCTS SCT040CB BKN060
      TEMPO 0101/0104 1SM TSRA BKN020CB OVC050
     FM010400 19008KT P6SM VCSH SCT020 BKN080
     FM010700 25006KT P6SM BKN100
     FM011400 30007KT P6SM SCT100=

USA.gov is the U.S. government's official web portal to all federal, state and local government web resources and services.